Terminal Aerodrome Forecast
Issued by NWS

Home | Current Version | Previous Version | Text Only | Print | Product List | Glossary Off
Versions: 1 2 3 4 5 6 7 8 9 10 11 12 13 14 15 16 17

111
FTUS43 KICT 212340
TAFRSL
TAF
KRSL 212340Z 2200/2224 06014G20KT P6SM BKN060
     FM220500 07012KT P6SM BKN060
     FM221500 12014KT P6SM BKN040=

USA.gov is the U.S. government's official web portal to all federal, state and local government web resources and services.